createdAt,value
2022-12-03T00:04:01.915Z,40.67
2022-12-03T00:09:07.872Z,46.67
2022-12-03T00:14:13.092Z,42.00
2022-12-03T00:19:19.090Z,24.25
2022-12-03T00:24:24.456Z,46.50
2022-12-03T00:29:30.625Z,50.00
2022-12-03T00:34:36.133Z,89.00
2022-12-03T00:39:42.654Z,197.00
2022-12-03T00:44:49.401Z,47.67
2022-12-03T00:49:54.398Z,72.25
2022-12-03T00:54:59.326Z,68.00
2022-12-03T01:00:05.421Z,36.75
2022-12-03T01:10:17.346Z,41.50
2022-12-03T01:15:23.635Z,44.33
2022-12-03T01:20:29.820Z,48.00
2022-12-03T01:25:34.723Z,37.50
2022-12-03T01:30:59.430Z,17.33
2022-12-03T01:36:04.465Z,48.00
2022-12-03T01:41:11.871Z,38.67
2022-12-03T01:46:22.301Z,62.00
2022-12-03T01:51:27.344Z,47.67
2022-12-03T01:56:32.418Z,48.00
2022-12-03T02:01:37.446Z,50.00
2022-12-03T02:06:43.630Z,147.00
2022-12-03T02:11:53.417Z,108.00
2022-12-03T02:16:59.308Z,72.00
2022-12-03T02:22:33.561Z,139.67
2022-12-03T02:27:38.669Z,42.50
2022-12-03T02:32:45.388Z,40.50
2022-12-03T02:38:12.922Z,46.50
2022-12-03T02:43:20.101Z,47.00
2022-12-03T02:48:33.654Z,23.33
2022-12-03T02:53:48.515Z,46.50
2022-12-03T02:58:59.402Z,40.75
2022-12-03T03:04:06.831Z,34.25
2022-12-03T03:09:14.215Z,25.00
2022-12-03T03:14:22.048Z,15.00
2022-12-03T03:24:37.853Z,49.00
2022-12-03T03:29:43.326Z,28.50
2022-12-03T03:34:50.526Z,42.33
2022-12-03T03:39:59.089Z,49.50
2022-12-03T03:45:05.958Z,36.25
2022-12-03T03:50:14.015Z,40.75
2022-12-03T03:55:22.666Z,46.25
2022-12-03T04:00:28.246Z,20.50
2022-12-03T04:05:34.940Z,26.00
2022-12-03T04:10:59.866Z,27.00
2022-12-03T04:16:05.498Z,42.75
2022-12-03T04:21:32.072Z,40.67
2022-12-03T04:26:56.687Z,52.00
2022-12-03T04:32:20.396Z,20.50
2022-12-03T04:37:27.612Z,3.33
2022-12-03T04:42:35.398Z,2.00
2022-12-03T04:47:41.951Z,2.50
2022-12-03T04:52:48.461Z,2.00
2022-12-03T04:57:55.598Z,2.67
2022-12-03T05:03:01.189Z,6.00
2022-12-03T05:08:07.204Z,4.00
2022-12-03T05:13:12.646Z,6.00
2022-12-03T05:18:19.822Z,0.67
2022-12-03T05:28:30.364Z,8.67
2022-12-03T05:33:40.917Z,3.50
2022-12-03T05:38:49.294Z,7.33
2022-12-03T05:43:56.618Z,6.50
2022-12-03T05:49:03.145Z,4.00
2022-12-03T05:54:08.587Z,1.50
2022-12-03T05:59:13.882Z,9.50
2022-12-03T06:04:20.575Z,4.67
2022-12-03T06:09:26.046Z,12.00
2022-12-03T06:14:34.573Z,4.00
2022-12-03T06:19:39.892Z,6.50
2022-12-03T06:24:45.461Z,15.67
2022-12-03T06:29:52.032Z,7.00
2022-12-03T06:34:57.450Z,13.33
2022-12-03T06:40:04.117Z,5.50
2022-12-03T06:45:12.203Z,10.00
2022-12-03T06:50:19.049Z,2.00
2022-12-03T06:55:25.595Z,5.33
2022-12-03T07:00:30.863Z,9.00
2022-12-03T07:05:41.372Z,1.00
2022-12-03T07:10:50.798Z,16.33
2022-12-03T07:15:57.913Z,14.67
2022-12-03T07:21:04.046Z,10.00
2022-12-03T07:26:13.050Z,9.00
2022-12-03T07:31:22.872Z,86.75
2022-12-03T07:36:29.455Z,77.00
2022-12-03T07:41:34.828Z,8.00
2022-12-03T07:46:40.520Z,9.00
2022-12-03T07:51:54.842Z,28.25
2022-12-03T07:57:03.936Z,26.00
2022-12-03T08:02:11.489Z,43.00
2022-12-03T08:07:18.771Z,41.00
2022-12-03T08:12:45.069Z,12.00
2022-12-03T08:18:04.382Z,34.75
2022-12-03T08:23:26.327Z,21.75
2022-12-03T08:28:33.351Z,12.00
2022-12-03T08:33:43.012Z,45.50
2022-12-03T08:38:53.983Z,42.67
2022-12-03T08:44:01.841Z,26.33
2022-12-03T08:49:07.831Z,26.00
2022-12-03T08:54:22.938Z,43.50
2022-12-03T08:59:35.498Z,39.25
2022-12-03T09:09:52.360Z,39.00
2022-12-03T09:14:58.387Z,50.00
2022-12-03T09:20:04.715Z,89.00
2022-12-03T09:25:12.121Z,50.00
2022-12-03T09:35:24.124Z,36.00
2022-12-03T09:40:31.521Z,141.75
2022-12-03T09:45:37.653Z,119.00
2022-12-03T09:50:44.796Z,46.25
2022-12-03T09:55:52.704Z,50.00
2022-12-03T10:00:59.530Z,24.50
2022-12-03T10:06:06.443Z,32.00
2022-12-03T10:11:13.498Z,13.25
2022-12-03T10:21:39.808Z,17.67
2022-12-03T10:26:48.787Z,18.50
2022-12-03T10:32:00.232Z,22.00
2022-12-03T10:37:26.048Z,28.50
2022-12-03T10:42:38.837Z,11.50
2022-12-03T10:47:46.446Z,6.00
2022-12-03T10:52:52.384Z,17.67
2022-12-03T10:57:59.228Z,12.67
2022-12-03T11:03:05.715Z,17.00
2022-12-03T11:08:22.845Z,31.50
2022-12-03T11:13:41.800Z,7.00
2022-12-03T11:18:48.651Z,6.00
2022-12-03T11:23:55.621Z,6.00
2022-12-03T11:29:02.150Z,9.50
2022-12-03T11:34:22.999Z,20.00
2022-12-03T11:45:13.184Z,10.00
2022-12-03T11:50:39.626Z,25.33
2022-12-03T11:56:15.250Z,26.00
2022-12-03T12:01:39.180Z,8.00
2022-12-03T12:07:02.694Z,26.67
2022-12-03T12:12:43.402Z,16.00
2022-12-03T12:17:52.786Z,22.67
2022-12-03T12:23:28.696Z,15.00
2022-12-03T12:28:38.647Z,17.00
2022-12-03T12:33:45.899Z,45.67
2022-12-03T12:38:52.587Z,12.50
2022-12-03T12:44:02.417Z,13.33
2022-12-03T12:49:15.580Z,15.00
2022-12-03T12:54:27.522Z,18.00
2022-12-03T12:59:34.362Z,38.33
2022-12-03T13:04:41.622Z,29.67
2022-12-03T13:09:52.661Z,50.00
2022-12-03T13:15:02.125Z,45.50
2022-12-03T13:20:22.801Z,46.75
2022-12-03T13:31:26.063Z,39.00
2022-12-03T13:36:57.106Z,17.75
2022-12-03T13:42:45.003Z,50.00
2022-12-03T13:53:29.816Z,50.00
2022-12-03T13:58:35.808Z,48.00
2022-12-03T14:03:46.356Z,10.67
2022-12-03T14:08:55.519Z,14.00
2022-12-03T14:14:02.086Z,17.50
2022-12-03T14:19:09.639Z,36.00
2022-12-03T14:24:16.830Z,72.00
2022-12-03T14:29:24.366Z,68.00
2022-12-03T14:34:31.466Z,83.25
2022-12-03T14:39:40.243Z,37.50
2022-12-03T14:44:50.241Z,112.25
2022-12-03T14:49:57.635Z,110.25
2022-12-03T14:55:04.685Z,50.00
2022-12-03T15:00:12.746Z,87.67
2022-12-03T15:05:22.205Z,131.00
2022-12-03T15:10:35.173Z,213.00
2022-12-03T15:15:46.324Z,90.67
2022-12-03T15:20:54.053Z,106.50
2022-12-03T15:26:07.535Z,140.67
2022-12-03T15:31:18.533Z,50.00
2022-12-03T15:36:26.133Z,30.00
2022-12-03T15:41:33.350Z,29.50
2022-12-03T15:46:47.958Z,41.33
2022-12-03T15:52:03.280Z,169.33
2022-12-03T15:57:15.946Z,50.00
2022-12-03T16:02:26.847Z,37.50
2022-12-03T16:07:36.991Z,47.75
2022-12-03T16:12:45.530Z,30.25
2022-12-03T16:18:03.168Z,45.75
2022-12-03T16:23:11.733Z,20.50
2022-12-03T16:28:19.419Z,28.50
2022-12-03T16:33:33.790Z,29.50
2022-12-03T16:38:44.048Z,8.00
2022-12-03T16:43:51.227Z,7.33
2022-12-03T16:49:01.989Z,4.00
2022-12-03T16:54:09.862Z,2.00
2022-12-03T16:59:16.273Z,7.33
2022-12-03T17:04:23.710Z,4.00
2022-12-03T17:09:30.406Z,3.33
2022-12-03T17:14:37.128Z,2.00
2022-12-03T17:19:42.927Z,7.50
2022-12-03T17:24:49.743Z,6.67
2022-12-03T17:29:55.344Z,4.00
2022-12-03T17:35:01.825Z,11.00
2022-12-03T17:40:09.132Z,6.00
2022-12-03T17:45:15.684Z,6.00
2022-12-03T17:55:33.832Z,7.50
2022-12-03T18:00:41.450Z,10.00
2022-12-03T18:05:46.468Z,13.00
2022-12-03T18:10:52.760Z,3.00
2022-12-03T18:15:57.948Z,3.33
2022-12-03T18:21:05.994Z,9.50
2022-12-03T18:26:10.991Z,15.25
2022-12-03T18:31:18.241Z,2.00
2022-12-03T18:36:28.059Z,2.00
2022-12-03T18:41:33.623Z,16.50
2022-12-03T18:46:55.175Z,4.00
2022-12-03T18:52:01.218Z,0.00
2022-12-03T18:57:06.251Z,10.00
2022-12-03T19:02:38.976Z,2.00
2022-12-03T19:07:46.365Z,0.50
2022-12-03T19:17:55.703Z,4.00
2022-12-03T19:23:00.680Z,0.00
2022-12-03T19:28:06.751Z,2.00
2022-12-03T19:33:17.834Z,2.00
2022-12-03T19:38:25.588Z,10.00
2022-12-03T19:43:33.859Z,2.00
2022-12-03T19:48:40.790Z,6.50
2022-12-03T19:53:47.795Z,3.00
2022-12-03T19:58:58.418Z,18.00
2022-12-03T20:04:05.218Z,2.00
2022-12-03T20:09:19.883Z,6.00
2022-12-03T20:14:25.007Z,0.50
2022-12-03T20:19:29.908Z,6.00
2022-12-03T20:24:36.556Z,6.00
2022-12-03T20:29:43.008Z,8.00
2022-12-03T20:34:48.032Z,1.00
2022-12-03T20:39:54.261Z,6.00
2022-12-03T20:45:00.172Z,2.00
2022-12-03T20:50:06.248Z,0.00
2022-12-03T20:55:13.529Z,0.00
2022-12-03T21:00:18.875Z,4.00
2022-12-03T21:05:23.892Z,4.00
2022-12-03T21:10:37.881Z,2.00
2022-12-03T21:15:43.426Z,0.00
2022-12-03T21:20:50.537Z,8.67
2022-12-03T21:25:57.069Z,0.50
2022-12-03T21:36:08.644Z,10.50
2022-12-03T21:41:15.419Z,4.00
2022-12-03T21:47:08.283Z,2.50
2022-12-03T21:51:45.501Z,9.00
2022-12-03T21:56:50.595Z,0.00
2022-12-03T22:01:56.581Z,2.00
2022-12-03T22:07:01.624Z,2.50
2022-12-03T22:12:06.817Z,0.00
2022-12-03T22:17:11.762Z,10.00
2022-12-03T22:22:17.895Z,2.00
2022-12-03T22:32:28.309Z,2.00
2022-12-03T22:37:34.945Z,7.00
2022-12-03T22:42:39.909Z,3.33
2022-12-03T22:47:45.613Z,10.00
2022-12-03T22:52:52.132Z,4.00
2022-12-03T22:57:58.306Z,9.00
2022-12-03T23:03:03.965Z,4.00
2022-12-03T23:08:12.039Z,6.00
2022-12-03T23:13:18.608Z,4.00
2022-12-03T23:18:24.654Z,10.00
2022-12-03T23:23:31.330Z,31.00
2022-12-03T23:28:39.553Z,45.75
2022-12-03T23:38:50.297Z,31.25
2022-12-03T23:43:56.707Z,36.25
2022-12-03T23:49:03.112Z,37.33
2022-12-03T23:54:08.460Z,35.25
2022-12-03T23:59:14.850Z,76.00
